createdAt,value
2017-06-27T00:00:12.330Z,14.85
2017-06-27T00:01:12.921Z,14.85
2017-06-27T00:02:13.500Z,14.68
2017-06-27T00:03:14.076Z,14.73
2017-06-27T00:04:14.655Z,14.62
2017-06-27T00:05:15.233Z,14.85
2017-06-27T00:06:15.812Z,14.88
2017-06-27T00:07:16.407Z,14.66
2017-06-27T00:08:16.988Z,14.68
2017-06-27T00:09:17.569Z,14.72
2017-06-27T00:10:18.144Z,14.73
2017-06-27T00:11:18.721Z,14.69
2017-06-27T00:12:19.302Z,14.96
2017-06-27T00:13:19.879Z,14.69
2017-06-27T00:14:20.458Z,14.58
2017-06-27T00:15:21.051Z,14.63
2017-06-27T00:16:21.631Z,14.79
2017-06-27T00:17:22.209Z,14.96
2017-06-27T00:18:22.787Z,14.97
2017-06-27T00:19:23.364Z,15.00
2017-06-27T00:20:23.943Z,15.03
2017-06-27T00:21:24.537Z,15.06
2017-06-27T00:22:25.117Z,15.07
2017-06-27T00:23:25.695Z,14.84
2017-06-27T00:24:26.275Z,14.89
2017-06-27T00:25:26.868Z,14.88
2017-06-27T00:26:27.465Z,14.94
2017-06-27T00:27:28.040Z,14.84
2017-06-27T00:28:28.634Z,14.51
2017-06-27T00:29:29.210Z,14.47
2017-06-27T00:30:29.787Z,14.28
2017-06-27T00:31:30.367Z,14.20
2017-06-27T00:32:30.946Z,14.40
2017-06-27T00:33:31.524Z,14.54
2017-06-27T00:34:32.117Z,14.77
2017-06-27T00:35:32.697Z,14.37
2017-06-27T00:36:33.274Z,14.68
2017-06-27T00:37:33.852Z,14.63
2017-06-27T00:38:34.431Z,14.53
2017-06-27T00:39:35.009Z,14.41
2017-06-27T00:40:35.588Z,14.36
2017-06-27T00:41:36.167Z,14.28
2017-06-27T00:42:36.744Z,14.28
2017-06-27T00:43:37.322Z,14.41
2017-06-27T00:44:37.901Z,14.44
2017-06-27T00:45:38.480Z,14.50
2017-06-27T00:46:39.074Z,14.44
2017-06-27T00:47:39.650Z,14.43
2017-06-27T00:48:40.244Z,14.51
2017-06-27T00:49:40.821Z,14.59
2017-06-27T00:50:41.400Z,14.60
2017-06-27T00:51:41.975Z,14.58
2017-06-27T00:52:42.554Z,14.47
2017-06-27T00:53:43.133Z,14.59
2017-06-27T00:54:43.710Z,14.32
2017-06-27T00:55:44.287Z,14.18
2017-06-27T00:56:44.865Z,14.25
2017-06-27T00:57:45.443Z,14.14
2017-06-27T00:58:46.037Z,13.93
2017-06-27T00:59:46.614Z,13.99
2017-06-27T01:00:47.193Z,13.87
2017-06-27T01:01:47.772Z,13.90
2017-06-27T01:02:48.351Z,13.93
2017-06-27T01:03:48.928Z,13.90
2017-06-27T01:04:49.508Z,14.04
2017-06-27T01:05:50.098Z,13.92
2017-06-27T01:06:50.676Z,14.08
2017-06-27T01:07:51.254Z,14.20
2017-06-27T01:08:51.832Z,14.32
2017-06-27T01:09:52.409Z,14.15
2017-06-27T01:10:52.988Z,14.17
2017-06-27T01:11:53.565Z,14.32
2017-06-27T01:12:54.143Z,14.11
2017-06-27T01:13:54.723Z,14.08
2017-06-27T01:14:55.300Z,14.08
2017-06-27T01:15:55.879Z,13.95
2017-06-27T01:16:56.456Z,13.95
2017-06-27T01:17:57.033Z,13.90
2017-06-27T01:18:57.612Z,13.78
2017-06-27T01:19:58.189Z,13.75
2017-06-27T01:20:58.769Z,13.79
2017-06-27T01:21:59.346Z,13.89
2017-06-27T01:22:59.923Z,14.03
2017-06-27T01:24:00.502Z,14.04
2017-06-27T01:25:01.081Z,14.04
2017-06-27T01:26:01.660Z,13.89
2017-06-27T01:27:02.237Z,13.83
2017-06-27T01:28:02.814Z,13.92
2017-06-27T01:29:03.396Z,13.86
2017-06-27T01:30:03.972Z,13.70
2017-06-27T01:31:04.550Z,13.74
2017-06-27T01:32:05.129Z,13.78
2017-06-27T01:33:05.705Z,14.04
2017-06-27T01:34:06.284Z,13.78
2017-06-27T01:35:06.863Z,13.78
2017-06-27T01:36:07.443Z,13.74
2017-06-27T01:37:08.019Z,13.70
2017-06-27T01:38:08.596Z,13.86
2017-06-27T01:39:09.188Z,13.95
2017-06-27T01:40:09.765Z,13.78
2017-06-27T01:41:10.343Z,13.87
2017-06-27T01:42:10.924Z,13.77
2017-06-27T01:43:11.498Z,13.74
2017-06-27T01:44:12.076Z,13.70
2017-06-27T01:45:12.653Z,13.60
2017-06-27T01:46:13.230Z,13.59
2017-06-27T01:47:13.809Z,13.52
2017-06-27T01:48:14.386Z,13.67
2017-06-27T01:49:14.965Z,13.71
2017-06-27T01:50:15.541Z,13.83
2017-06-27T01:51:16.119Z,13.78
2017-06-27T01:52:16.694Z,13.79
2017-06-27T01:53:17.878Z,13.89
2017-06-27T01:54:18.455Z,13.97
2017-06-27T01:55:19.032Z,13.95
2017-06-27T01:56:19.610Z,13.89
2017-06-27T01:57:20.189Z,13.68
2017-06-27T01:58:20.767Z,13.71
2017-06-27T01:59:21.344Z,13.77
2017-06-27T02:00:21.938Z,13.72
2017-06-27T02:01:22.514Z,13.87
2017-06-27T02:02:23.091Z,13.92
2017-06-27T02:03:23.684Z,13.74
2017-06-27T02:04:24.260Z,13.74
2017-06-27T02:05:24.842Z,13.79
2017-06-27T02:06:25.418Z,13.68
2017-06-27T02:07:25.994Z,13.77
2017-06-27T02:08:26.588Z,13.87
2017-06-27T02:09:27.165Z,13.89
2017-06-27T02:10:27.743Z,13.77
2017-06-27T02:11:28.319Z,13.89
2017-06-27T02:12:28.898Z,13.89
2017-06-27T02:13:29.475Z,13.81
2017-06-27T02:14:30.054Z,13.86
2017-06-27T02:15:30.632Z,13.79
2017-06-27T02:16:31.208Z,13.83
2017-06-27T02:17:31.800Z,13.74
2017-06-27T02:18:32.392Z,13.89
2017-06-27T02:19:32.969Z,13.89
2017-06-27T02:20:33.547Z,13.95
2017-06-27T02:21:34.126Z,13.93
2017-06-27T02:22:34.703Z,14.00
2017-06-27T02:23:35.282Z,13.93
2017-06-27T02:24:35.861Z,13.89
2017-06-27T02:25:36.451Z,13.79
2017-06-27T02:26:37.028Z,13.93
2017-06-27T02:27:37.605Z,13.93
2017-06-27T02:28:38.183Z,13.79
2017-06-27T02:29:38.762Z,13.92
2017-06-27T02:30:39.339Z,13.71
2017-06-27T02:31:39.916Z,13.54
2017-06-27T02:32:40.492Z,13.63
2017-06-27T02:33:41.069Z,13.65
2017-06-27T02:34:41.647Z,13.65
2017-06-27T02:35:42.224Z,13.70
2017-06-27T02:36:42.802Z,13.75
2017-06-27T02:37:43.380Z,13.63
2017-06-27T02:38:43.972Z,13.49
2017-06-27T02:39:44.549Z,13.67
2017-06-27T02:40:45.126Z,13.59
2017-06-27T02:41:45.707Z,13.56
2017-06-27T02:42:46.283Z,13.49
2017-06-27T02:43:46.860Z,13.52
2017-06-27T02:44:47.438Z,13.44
2017-06-27T02:45:48.014Z,13.56
2017-06-27T02:46:48.593Z,13.65
2017-06-27T02:47:49.172Z,13.42
2017-06-27T02:48:49.749Z,13.33
2017-06-27T02:49:50.327Z,13.38
2017-06-27T02:50:50.902Z,13.30
2017-06-27T02:51:51.480Z,13.33
2017-06-27T02:52:52.059Z,13.18
2017-06-27T02:53:52.636Z,13.04
2017-06-27T02:54:53.214Z,13.15
2017-06-27T02:55:53.790Z,13.22
2017-06-27T02:56:54.366Z,13.01
2017-06-27T02:57:54.942Z,12.90
2017-06-27T02:58:55.519Z,13.00
2017-06-27T02:59:56.098Z,13.09
2017-06-27T03:00:56.675Z,13.09
2017-06-27T03:01:57.253Z,13.18
2017-06-27T03:02:57.829Z,13.30
2017-06-27T03:03:58.407Z,13.11
2017-06-27T03:04:58.985Z,13.19
2017-06-27T03:05:59.561Z,13.20
2017-06-27T03:07:00.141Z,13.20
2017-06-27T03:08:00.718Z,13.20
2017-06-27T03:09:01.297Z,13.11
2017-06-27T03:10:01.877Z,13.16
2017-06-27T03:11:02.454Z,13.16
2017-06-27T03:12:03.031Z,13.31
2017-06-27T03:13:03.609Z,13.22
2017-06-27T03:14:04.188Z,13.33
2017-06-27T03:15:04.769Z,13.30
2017-06-27T03:16:05.346Z,13.28
2017-06-27T03:17:05.923Z,13.39
2017-06-27T03:18:06.503Z,13.27
2017-06-27T03:19:07.081Z,13.44
2017-06-27T03:20:07.660Z,13.47
2017-06-27T03:21:08.237Z,13.31
2017-06-27T03:22:08.816Z,13.39
2017-06-27T03:23:09.396Z,13.44
2017-06-27T03:24:09.973Z,13.16
2017-06-27T03:25:10.551Z,13.20
2017-06-27T03:26:11.130Z,13.27
2017-06-27T03:27:11.713Z,13.22
2017-06-27T03:28:12.288Z,13.33
2017-06-27T03:29:12.865Z,13.22
2017-06-27T03:30:13.443Z,13.22
2017-06-27T03:31:14.024Z,13.20
2017-06-27T03:32:14.600Z,13.16
2017-06-27T03:33:15.179Z,13.31
2017-06-27T03:34:15.758Z,13.27
2017-06-27T03:35:16.336Z,13.05
2017-06-27T03:36:16.915Z,13.16
2017-06-27T03:37:17.494Z,13.03
2017-06-27T03:38:18.071Z,13.16
2017-06-27T03:39:18.649Z,13.23
2017-06-27T03:40:19.228Z,13.09
2017-06-27T03:41:19.806Z,13.16
2017-06-27T03:42:20.384Z,13.23
2017-06-27T03:43:20.963Z,13.38
2017-06-27T03:44:21.542Z,13.30
2017-06-27T03:45:22.123Z,13.52
2017-06-27T03:46:22.698Z,13.54
2017-06-27T03:47:23.276Z,13.59
2017-06-27T03:48:23.856Z,13.56
2017-06-27T03:49:24.436Z,13.31
2017-06-27T03:50:25.015Z,13.39
2017-06-27T03:51:25.594Z,13.19
2017-06-27T03:52:26.175Z,13.33
2017-06-27T03:53:26.755Z,13.23
2017-06-27T03:54:27.332Z,13.30
2017-06-27T03:55:27.913Z,13.33
2017-06-27T03:56:28.492Z,13.39
2017-06-27T03:57:29.071Z,13.33
2017-06-27T03:58:29.665Z,13.18
2017-06-27T03:59:30.245Z,13.35
2017-06-27T04:00:30.824Z,13.37
2017-06-27T04:01:31.404Z,13.23
2017-06-27T04:02:31.982Z,13.49
2017-06-27T04:03:32.562Z,13.38
2017-06-27T04:04:33.143Z,13.52
2017-06-27T04:05:33.736Z,13.57
2017-06-27T04:06:34.314Z,13.37
2017-06-27T04:07:34.891Z,13.25
2017-06-27T04:08:35.471Z,13.44
2017-06-27T04:09:36.050Z,13.35
2017-06-27T04:10:36.629Z,13.42
2017-06-27T04:11:37.208Z,13.47
2017-06-27T04:12:37.787Z,13.38
2017-06-27T04:13:38.367Z,13.23
2017-06-27T04:14:38.946Z,13.31
2017-06-27T04:15:39.527Z,13.25
2017-06-27T04:16:40.107Z,13.42
2017-06-27T04:17:40.686Z,13.46
2017-06-27T04:18:41.266Z,13.39
2017-06-27T04:19:41.847Z,13.50
2017-06-27T04:20:42.424Z,13.50
2017-06-27T04:21:43.002Z,13.49
2017-06-27T04:22:43.585Z,13.23
2017-06-27T04:23:44.163Z,13.38
2017-06-27T04:24:44.741Z,13.38
2017-06-27T04:25:45.319Z,13.49
2017-06-27T04:26:45.915Z,13.33
2017-06-27T04:27:46.495Z,13.60
2017-06-27T04:28:47.075Z,13.63
2017-06-27T04:29:47.655Z,13.65
2017-06-27T04:30:48.237Z,13.60
2017-06-27T04:31:48.817Z,13.68
2017-06-27T04:32:49.399Z,13.74
2017-06-27T04:33:49.977Z,13.96
2017-06-27T04:34:50.558Z,13.97
2017-06-27T04:35:51.138Z,13.68
2017-06-27T04:36:51.719Z,13.60
2017-06-27T04:37:52.301Z,13.56
2017-06-27T04:38:52.881Z,13.70
2017-06-27T04:39:53.476Z,13.86
2017-06-27T04:40:54.058Z,13.75
2017-06-27T04:41:54.639Z,13.79
2017-06-27T04:42:55.217Z,13.85
2017-06-27T04:43:55.799Z,14.08
2017-06-27T04:44:56.395Z,14.03
2017-06-27T04:45:56.974Z,14.07
2017-06-27T04:46:57.604Z,14.00
2017-06-27T04:47:58.185Z,13.96
2017-06-27T04:48:58.765Z,13.96
2017-06-27T04:49:59.347Z,13.71
2017-06-27T04:50:59.928Z,13.81
2017-06-27T04:52:00.508Z,13.90
2017-06-27T04:53:01.090Z,14.00
2017-06-27T04:54:01.670Z,13.99
2017-06-27T04:55:02.251Z,13.99
2017-06-27T04:56:02.833Z,13.92
2017-06-27T04:57:03.412Z,13.89
2017-06-27T04:58:03.992Z,13.96
2017-06-27T04:59:04.574Z,14.08
2017-06-27T05:00:05.155Z,14.14
2017-06-27T05:01:05.735Z,14.12
2017-06-27T05:02:06.317Z,14.03
2017-06-27T05:03:06.896Z,13.95
2017-06-27T05:04:07.477Z,14.03
2017-06-27T05:05:08.081Z,14.04
2017-06-27T05:06:08.639Z,14.18
2017-06-27T05:07:09.218Z,14.15
2017-06-27T05:08:09.799Z,14.10
2017-06-27T05:09:10.384Z,14.17
2017-06-27T05:10:10.976Z,14.14
2017-06-27T05:11:11.557Z,14.30
2017-06-27T05:12:12.139Z,14.07
2017-06-27T05:13:12.720Z,13.99
2017-06-27T05:14:13.301Z,14.15
2017-06-27T05:15:13.884Z,14.17
2017-06-27T05:16:14.463Z,14.23
2017-06-27T05:17:15.044Z,14.35
2017-06-27T05:18:15.626Z,14.50
2017-06-27T05:19:16.206Z,14.35
2017-06-27T05:20:16.787Z,14.51
2017-06-27T05:21:17.374Z,14.22
2017-06-27T05:22:17.948Z,14.37
2017-06-27T05:23:18.529Z,14.59
2017-06-27T05:24:19.125Z,14.33
2017-06-27T05:25:19.707Z,14.43
2017-06-27T05:26:20.288Z,14.50
2017-06-27T05:27:20.868Z,14.62
2017-06-27T05:28:21.451Z,14.48
2017-06-27T05:29:22.032Z,14.53
2017-06-27T05:30:22.612Z,14.65
2017-06-27T05:31:23.193Z,14.43
2017-06-27T05:32:23.775Z,14.63
2017-06-27T05:33:24.355Z,14.62
2017-06-27T05:34:24.935Z,14.68
2017-06-27T05:35:25.516Z,14.60
2017-06-27T05:36:26.098Z,14.54
2017-06-27T05:37:26.693Z,14.73
2017-06-27T05:38:27.273Z,14.97
2017-06-27T05:39:27.856Z,14.96
2017-06-27T05:40:28.439Z,15.02
2017-06-27T05:41:29.031Z,14.91
2017-06-27T05:42:29.611Z,15.02
2017-06-27T05:43:30.195Z,15.17
2017-06-27T05:44:30.773Z,15.03
2017-06-27T05:45:31.354Z,15.03
2017-06-27T05:46:31.935Z,15.00
2017-06-27T05:47:32.515Z,14.73
2017-06-27T05:48:33.095Z,15.00
2017-06-27T05:49:33.677Z,15.03
2017-06-27T05:50:34.258Z,15.02
2017-06-27T05:51:34.839Z,15.10
2017-06-27T05:52:35.421Z,15.29
2017-06-27T05:53:36.001Z,15.43
2017-06-27T05:54:36.581Z,15.61
2017-06-27T05:55:37.164Z,15.46
2017-06-27T05:56:37.746Z,15.49
2017-06-27T05:57:38.324Z,15.49
2017-06-27T05:58:38.909Z,15.44
2017-06-27T05:59:39.486Z,15.31
2017-06-27T06:00:40.067Z,15.52
2017-06-27T06:01:40.648Z,15.64
2017-06-27T06:02:41.228Z,15.72
2017-06-27T06:03:41.813Z,15.35
2017-06-27T06:04:42.391Z,15.43
2017-06-27T06:05:42.972Z,15.49
2017-06-27T06:06:43.554Z,15.47
2017-06-27T06:07:44.133Z,15.40
2017-06-27T06:08:44.715Z,15.57
2017-06-27T06:09:45.296Z,15.44
2017-06-27T06:10:45.878Z,15.43
2017-06-27T06:11:46.458Z,15.46
2017-06-27T06:12:47.040Z,15.61
2017-06-27T06:13:47.637Z,15.36
2017-06-27T06:14:48.218Z,15.39
2017-06-27T06:15:48.799Z,15.54
2017-06-27T06:16:49.382Z,15.59
2017-06-27T06:17:49.962Z,15.77
2017-06-27T06:18:50.544Z,15.79
2017-06-27T06:19:51.124Z,15.86
2017-06-27T06:20:51.705Z,15.75
2017-06-27T06:21:52.287Z,15.73
2017-06-27T06:22:52.868Z,15.95
2017-06-27T06:23:53.450Z,16.28
2017-06-27T06:24:54.031Z,16.21
2017-06-27T06:25:54.612Z,16.28
2017-06-27T06:26:55.193Z,16.17
2017-06-27T06:27:55.776Z,16.08
2017-06-27T06:28:56.357Z,16.04
2017-06-27T06:29:56.938Z,15.94
2017-06-27T06:30:57.520Z,15.94
2017-06-27T06:31:58.101Z,16.31
2017-06-27T06:32:58.682Z,16.60
2017-06-27T06:33:59.264Z,16.68
2017-06-27T06:34:59.847Z,16.54
2017-06-27T06:36:00.427Z,16.26
2017-06-27T06:37:01.009Z,16.23
2017-06-27T06:38:01.592Z,16.29
2017-06-27T06:39:02.173Z,16.29
2017-06-27T06:40:02.754Z,16.36
2017-06-27T06:41:03.337Z,16.35
2017-06-27T06:42:03.920Z,16.41
2017-06-27T06:43:04.499Z,16.36
2017-06-27T06:44:05.097Z,16.60
2017-06-27T06:45:05.678Z,16.83
2017-06-27T06:46:06.260Z,16.99
2017-06-27T06:47:06.841Z,16.94
2017-06-27T06:48:07.423Z,17.09
2017-06-27T06:49:08.004Z,16.86
2017-06-27T06:50:08.586Z,16.56
2017-06-27T06:51:09.167Z,16.60
2017-06-27T06:52:09.749Z,16.66
2017-06-27T06:53:10.330Z,16.56
2017-06-27T06:54:10.914Z,16.56
2017-06-27T06:55:11.511Z,16.76
2017-06-27T06:56:12.107Z,16.78
2017-06-27T06:57:12.688Z,16.81
2017-06-27T06:58:13.285Z,16.66
2017-06-27T06:59:13.866Z,16.75
2017-06-27T07:00:14.463Z,17.06
2017-06-27T07:01:15.045Z,17.01
2017-06-27T07:02:15.627Z,16.81
2017-06-27T07:03:16.209Z,16.94
2017-06-27T07:04:16.792Z,16.84
2017-06-27T07:05:17.373Z,16.87
2017-06-27T07:06:17.955Z,17.05
2017-06-27T07:07:18.537Z,16.93
2017-06-27T07:08:19.120Z,16.65
2017-06-27T07:09:19.706Z,16.76
2017-06-27T07:10:20.301Z,16.76
2017-06-27T07:11:20.884Z,16.71
2017-06-27T07:12:21.467Z,16.93
2017-06-27T07:13:22.048Z,17.02
2017-06-27T07:14:22.629Z,16.74
2017-06-27T07:15:23.214Z,16.78
2017-06-27T07:16:23.795Z,16.75
2017-06-27T07:17:24.375Z,16.66
2017-06-27T07:18:24.972Z,16.60
2017-06-27T07:19:25.558Z,16.66
2017-06-27T07:20:26.137Z,16.84
2017-06-27T07:21:26.718Z,16.94
2017-06-27T07:22:27.302Z,16.81
2017-06-27T07:23:27.884Z,16.79
2017-06-27T07:24:28.467Z,16.84
2017-06-27T07:25:29.062Z,16.78
2017-06-27T07:26:29.648Z,16.60
2017-06-27T07:27:30.244Z,16.60
2017-06-27T07:28:30.825Z,16.89
2017-06-27T07:29:31.407Z,17.05
2017-06-27T07:30:31.990Z,17.14
2017-06-27T07:31:32.571Z,17.29
2017-06-27T07:32:33.153Z,17.34
2017-06-27T07:33:33.736Z,17.39
2017-06-27T07:34:34.318Z,17.49
2017-06-27T07:35:34.899Z,17.63
2017-06-27T07:36:35.485Z,17.44
2017-06-27T07:37:36.062Z,17.52
2017-06-27T07:38:36.644Z,17.74
2017-06-27T07:39:37.228Z,17.83
2017-06-27T07:40:37.809Z,17.68
2017-06-27T07:41:38.391Z,17.65
2017-06-27T07:42:38.974Z,17.65
2017-06-27T07:43:39.555Z,17.98
2017-06-27T07:44:40.137Z,17.87
2017-06-27T07:45:40.721Z,17.78
2017-06-27T07:46:41.303Z,17.92
2017-06-27T07:47:41.884Z,18.01
2017-06-27T07:48:42.468Z,18.00
2017-06-27T07:49:43.050Z,17.74
2017-06-27T07:50:43.631Z,17.60
2017-06-27T07:51:44.216Z,17.68
2017-06-27T07:52:44.813Z,17.71
2017-06-27T07:53:45.396Z,17.83
2017-06-27T07:54:45.979Z,17.70
2017-06-27T07:55:46.576Z,17.80
2017-06-27T07:56:47.159Z,17.94
2017-06-27T07:57:47.742Z,17.94
2017-06-27T07:58:48.368Z,17.86
2017-06-27T07:59:48.925Z,17.92
2017-06-27T08:00:49.510Z,17.82
2017-06-27T08:01:50.091Z,17.86
2017-06-27T08:02:50.674Z,18.03
2017-06-27T08:03:51.257Z,18.28
2017-06-27T08:04:51.839Z,18.05
2017-06-27T08:05:52.423Z,18.22
2017-06-27T08:06:53.008Z,18.15
2017-06-27T08:07:53.606Z,18.20
2017-06-27T08:08:54.191Z,18.10
2017-06-27T08:09:54.772Z,18.00
2017-06-27T08:10:55.355Z,18.04
2017-06-27T08:11:55.940Z,18.10
2017-06-27T08:12:56.522Z,18.04
2017-06-27T08:13:57.103Z,18.34
2017-06-27T08:14:57.688Z,18.08
2017-06-27T08:15:58.270Z,18.38
2017-06-27T08:16:58.852Z,18.58
2017-06-27T08:17:59.435Z,18.62
2017-06-27T08:19:00.017Z,18.55
2017-06-27T08:20:00.606Z,18.83
2017-06-27T08:21:01.195Z,18.83
2017-06-27T08:22:01.777Z,18.63
2017-06-27T08:23:02.359Z,18.53
2017-06-27T08:24:02.942Z,18.40
2017-06-27T08:25:03.524Z,18.28
2017-06-27T08:26:04.108Z,18.37
2017-06-27T08:27:04.691Z,18.38
2017-06-27T08:28:05.273Z,18.47
2017-06-27T08:29:05.872Z,18.60
2017-06-27T08:30:06.470Z,18.83
2017-06-27T08:31:07.053Z,18.80
2017-06-27T08:32:07.638Z,18.40
2017-06-27T08:33:08.238Z,18.49
2017-06-27T08:34:08.820Z,18.59
2017-06-27T08:35:09.401Z,18.55
2017-06-27T08:36:09.983Z,18.81
2017-06-27T08:37:10.568Z,18.65
2017-06-27T08:38:11.149Z,18.89
2017-06-27T08:39:11.732Z,19.09
2017-06-27T08:40:12.315Z,18.62
2017-06-27T08:41:12.898Z,18.65
2017-06-27T08:42:13.481Z,18.62
2017-06-27T08:43:14.064Z,18.81
2017-06-27T08:44:14.649Z,18.84
2017-06-27T08:45:15.234Z,18.84
2017-06-27T08:46:15.830Z,19.09
2017-06-27T08:47:16.429Z,18.95
2017-06-27T08:48:17.013Z,19.16
2017-06-27T08:49:17.611Z,19.12
2017-06-27T08:50:18.193Z,18.80
2017-06-27T08:51:18.777Z,18.73
2017-06-27T08:52:19.362Z,18.88
2017-06-27T08:53:19.945Z,18.95
2017-06-27T08:54:20.527Z,19.04
2017-06-27T08:55:21.112Z,18.71
2017-06-27T08:56:21.693Z,18.62
2017-06-27T08:57:22.277Z,18.83
2017-06-27T08:58:22.865Z,18.90
2017-06-27T08:59:23.444Z,18.92
2017-06-27T09:00:24.027Z,18.90
2017-06-27T09:01:24.613Z,19.12
2017-06-27T09:02:25.194Z,19.26
2017-06-27T09:03:25.777Z,19.52
2017-06-27T09:04:26.362Z,19.69
2017-06-27T09:05:26.943Z,19.49
2017-06-27T09:06:27.527Z,19.51
2017-06-27T09:07:28.112Z,19.54
2017-06-27T09:08:28.711Z,19.51
2017-06-27T09:09:29.293Z,19.22
2017-06-27T09:10:29.876Z,19.36
2017-06-27T09:11:30.461Z,19.18
2017-06-27T09:12:31.045Z,19.07
2017-06-27T09:13:31.627Z,19.19
2017-06-27T09:14:32.212Z,19.08
2017-06-27T09:15:32.794Z,19.21
2017-06-27T09:16:33.377Z,19.07
2017-06-27T09:17:33.962Z,19.14
2017-06-27T09:18:34.545Z,19.07
2017-06-27T09:19:35.128Z,19.31
2017-06-27T09:20:35.712Z,19.56
2017-06-27T09:21:36.296Z,19.56
2017-06-27T09:22:36.892Z,19.36
2017-06-27T09:23:37.463Z,18.98
2017-06-27T09:24:38.047Z,19.29
2017-06-27T09:25:38.628Z,19.49
2017-06-27T09:26:39.213Z,19.59
2017-06-27T09:27:39.796Z,19.76
2017-06-27T09:28:40.379Z,19.55
2017-06-27T09:29:40.977Z,19.82
2017-06-27T09:30:41.561Z,19.79
2017-06-27T09:31:42.144Z,19.51
2017-06-27T09:32:42.728Z,19.26
2017-06-27T09:33:43.313Z,19.21
2017-06-27T09:34:43.896Z,19.22
2017-06-27T09:35:44.479Z,19.36
2017-06-27T09:36:45.063Z,19.67
2017-06-27T09:37:45.648Z,19.26
2017-06-27T09:38:46.246Z,19.64
2017-06-27T09:39:46.828Z,19.94
2017-06-27T09:40:47.413Z,19.67
2017-06-27T09:41:47.996Z,19.63
2017-06-27T09:42:48.578Z,19.89
2017-06-27T09:43:49.165Z,19.82
2017-06-27T09:44:49.747Z,19.84
2017-06-27T09:45:50.331Z,20.04
2017-06-27T09:46:50.916Z,20.25
2017-06-27T09:47:51.499Z,20.04
2017-06-27T09:48:52.084Z,20.28
2017-06-27T09:49:52.668Z,20.29
2017-06-27T09:50:53.251Z,20.21
2017-06-27T09:51:53.834Z,20.26
2017-06-27T09:52:54.421Z,20.11
2017-06-27T09:53:55.002Z,20.31
2017-06-27T09:54:55.586Z,20.21
2017-06-27T09:55:56.173Z,19.74
2017-06-27T09:56:56.757Z,19.76
2017-06-27T09:57:57.345Z,19.76
2017-06-27T09:58:57.929Z,19.84
2017-06-27T09:59:58.512Z,20.31
2017-06-27T10:00:59.099Z,20.50
2017-06-27T10:01:59.683Z,20.36
2017-06-27T10:03:00.268Z,20.59
2017-06-27T10:04:00.856Z,20.66
2017-06-27T10:05:01.437Z,20.44
2017-06-27T10:06:02.024Z,20.16
2017-06-27T10:07:02.608Z,20.13
2017-06-27T10:08:03.192Z,20.07
2017-06-27T10:09:03.778Z,20.29
2017-06-27T10:10:04.363Z,20.22
2017-06-27T10:11:04.947Z,20.07
2017-06-27T10:12:05.533Z,20.03
2017-06-27T10:13:06.119Z,20.10
2017-06-27T10:14:06.703Z,20.24
2017-06-27T10:15:07.290Z,20.16
2017-06-27T10:16:07.874Z,20.28
2017-06-27T10:17:08.459Z,20.43
2017-06-27T10:18:09.046Z,20.39
2017-06-27T10:19:09.631Z,20.41
2017-06-27T10:20:10.216Z,20.28
2017-06-27T10:21:10.800Z,20.63
2017-06-27T10:22:11.386Z,20.62
2017-06-27T10:23:11.971Z,20.99
2017-06-27T10:24:12.558Z,20.77
2017-06-27T10:25:13.142Z,20.51
2017-06-27T10:26:13.729Z,20.51
2017-06-27T10:27:14.312Z,20.75
2017-06-27T10:28:14.898Z,20.78
2017-06-27T10:29:15.482Z,21.15
2017-06-27T10:30:16.069Z,21.20
2017-06-27T10:31:16.654Z,21.35
2017-06-27T10:32:17.253Z,21.15
2017-06-27T10:33:17.839Z,21.33
2017-06-27T10:34:18.423Z,21.60
2017-06-27T10:35:19.007Z,21.48
2017-06-27T10:36:19.595Z,21.37
2017-06-27T10:37:20.180Z,21.69
2017-06-27T10:38:20.775Z,21.46
2017-06-27T10:39:21.352Z,21.46
2017-06-27T10:40:21.937Z,20.90
2017-06-27T10:41:22.524Z,20.84
2017-06-27T10:42:23.108Z,20.66
2017-06-27T10:43:23.696Z,20.72
2017-06-27T10:44:24.282Z,21.06
2017-06-27T10:45:24.867Z,21.03
2017-06-27T10:46:25.454Z,21.14
2017-06-27T10:47:26.037Z,21.17
2017-06-27T10:48:26.621Z,21.48
2017-06-27T10:49:27.207Z,21.51
2017-06-27T10:50:27.791Z,21.70
2017-06-27T10:51:28.374Z,21.52
2017-06-27T10:52:28.960Z,21.66
2017-06-27T10:53:29.545Z,21.22
2017-06-27T10:54:30.129Z,21.54
2017-06-27T10:55:30.715Z,21.43
2017-06-27T10:56:31.300Z,21.69
2017-06-27T10:57:31.886Z,21.72
2017-06-27T10:58:32.474Z,21.55
2017-06-27T10:59:33.057Z,21.45
2017-06-27T11:00:33.643Z,21.55
2017-06-27T11:01:34.229Z,21.75
2017-06-27T11:02:34.814Z,21.21
2017-06-27T11:03:35.399Z,21.09
2017-06-27T11:04:35.986Z,21.24
2017-06-27T11:05:36.573Z,20.96
2017-06-27T11:06:37.156Z,21.07
2017-06-27T11:07:37.738Z,21.11
2017-06-27T11:08:38.322Z,21.45
2017-06-27T11:09:38.907Z,21.42
2017-06-27T11:10:39.490Z,21.43
2017-06-27T11:11:40.073Z,21.80
2017-06-27T11:12:40.657Z,21.80
2017-06-27T11:13:41.242Z,21.61
2017-06-27T11:14:41.825Z,21.72
2017-06-27T11:15:42.411Z,21.85
2017-06-27T11:16:42.995Z,21.92
2017-06-27T11:17:43.579Z,21.70
2017-06-27T11:18:44.163Z,22.04
2017-06-27T11:19:44.761Z,22.13
2017-06-27T11:20:45.347Z,22.20
2017-06-27T11:21:45.933Z,22.08
2017-06-27T11:22:46.519Z,22.20
2017-06-27T11:23:47.106Z,22.06
2017-06-27T11:24:47.692Z,22.39
2017-06-27T11:25:48.278Z,22.23
2017-06-27T11:26:48.864Z,22.53
2017-06-27T11:27:49.449Z,22.33
2017-06-27T11:28:50.036Z,22.14
2017-06-27T11:29:50.625Z,22.26
2017-06-27T11:30:51.224Z,22.57
2017-06-27T11:31:51.811Z,22.17
2017-06-27T11:32:52.400Z,22.17
2017-06-27T11:33:52.985Z,22.32
2017-06-27T11:34:53.572Z,22.13
2017-06-27T11:35:54.159Z,22.45
2017-06-27T11:36:54.744Z,22.57
2017-06-27T11:37:55.329Z,22.14
2017-06-27T11:38:55.916Z,22.07
2017-06-27T11:39:56.502Z,22.47
2017-06-27T11:40:57.087Z,22.59
2017-06-27T11:41:57.674Z,22.81
2017-06-27T11:42:58.260Z,22.68
2017-06-27T11:43:58.845Z,22.72
2017-06-27T11:44:59.433Z,22.76
2017-06-27T11:46:00.019Z,22.36
2017-06-27T11:47:00.605Z,22.15
2017-06-27T11:48:01.194Z,22.06
2017-06-27T11:49:01.778Z,22.11
2017-06-27T11:50:02.365Z,22.14
2017-06-27T11:51:03.155Z,22.39
2017-06-27T11:52:03.744Z,22.10
2017-06-27T11:53:04.326Z,22.02
2017-06-27T11:54:04.915Z,22.43
2017-06-27T11:55:05.500Z,22.50
2017-06-27T11:56:06.086Z,22.59
2017-06-27T11:57:06.674Z,22.45
2017-06-27T11:58:07.259Z,22.80
2017-06-27T11:59:07.845Z,22.57
2017-06-27T12:00:08.431Z,22.29
2017-06-27T12:01:09.030Z,22.17
2017-06-27T12:02:09.615Z,22.15
2017-06-27T12:03:10.200Z,22.18
2017-06-27T12:04:10.785Z,22.10
2017-06-27T12:05:11.369Z,22.10
2017-06-27T12:06:11.955Z,22.08
2017-06-27T12:07:12.541Z,22.36
2017-06-27T12:08:13.127Z,22.59
2017-06-27T12:09:13.712Z,22.38
2017-06-27T12:10:14.297Z,22.08
2017-06-27T12:11:14.884Z,22.14
2017-06-27T12:12:15.467Z,22.13
2017-06-27T12:13:16.053Z,22.04
2017-06-27T12:14:16.643Z,22.18
2017-06-27T12:15:17.223Z,22.25
2017-06-27T12:16:17.808Z,22.14
2017-06-27T12:17:18.394Z,22.33
2017-06-27T12:18:18.979Z,22.20
2017-06-27T12:19:19.563Z,21.77
2017-06-27T12:20:20.149Z,21.85
2017-06-27T12:21:20.733Z,22.13
2017-06-27T12:22:21.319Z,21.96
2017-06-27T12:23:21.903Z,21.93
2017-06-27T12:24:22.489Z,21.57
2017-06-27T12:25:23.073Z,21.72
2017-06-27T12:26:23.658Z,22.10
2017-06-27T12:27:24.243Z,22.20
2017-06-27T12:28:24.830Z,22.17
2017-06-27T12:29:25.415Z,22.13
2017-06-27T12:30:26.001Z,22.13
2017-06-27T12:31:26.586Z,21.75
2017-06-27T12:32:27.171Z,22.15
2017-06-27T12:33:27.756Z,22.15
2017-06-27T12:34:28.340Z,22.32
2017-06-27T12:35:28.931Z,22.48
2017-06-27T12:36:29.528Z,22.43
2017-06-27T12:37:30.111Z,22.44
2017-06-27T12:38:30.695Z,22.38
2017-06-27T12:39:31.281Z,22.23
2017-06-27T12:40:31.865Z,21.91
2017-06-27T12:41:32.450Z,21.76
2017-06-27T12:42:33.035Z,21.96
2017-06-27T12:43:33.620Z,22.18
2017-06-27T12:44:34.206Z,22.23
2017-06-27T12:45:34.789Z,22.18
2017-06-27T12:46:35.382Z,22.47
2017-06-27T12:47:35.966Z,22.55
2017-06-27T12:48:36.552Z,22.45
2017-06-27T12:49:37.137Z,22.57
2017-06-27T12:50:37.723Z,22.32
2017-06-27T12:51:38.323Z,22.55
2017-06-27T12:52:38.909Z,22.50
2017-06-27T12:53:39.492Z,22.65
2017-06-27T12:54:40.077Z,22.55
2017-06-27T12:55:40.664Z,22.41
2017-06-27T12:56:41.247Z,22.57
2017-06-27T12:57:41.832Z,22.22
2017-06-27T12:58:42.419Z,22.11
2017-06-27T12:59:43.004Z,22.18